createdAt,value
2022-10-30T00:02:03.563Z,14.43
2022-10-30T00:04:33.648Z,13.87
2022-10-30T00:07:04.362Z,13.44
2022-10-30T00:09:33.632Z,14.36
2022-10-30T00:12:03.365Z,14.32
2022-10-30T00:14:33.799Z,14.24
2022-10-30T00:17:06.089Z,14.09
2022-10-30T00:19:34.882Z,12.87
2022-10-30T00:24:36.090Z,14.74
2022-10-30T00:27:06.322Z,14.12
2022-10-30T00:29:35.099Z,14.19
2022-10-30T00:32:04.234Z,12.38
2022-10-30T00:34:33.578Z,14.33
2022-10-30T00:37:03.141Z,12.71
2022-10-30T00:39:34.181Z,13.82
2022-10-30T00:42:03.802Z,14.36
2022-10-30T00:44:47.001Z,13.76
2022-10-30T00:47:21.428Z,14.11
2022-10-30T00:49:58.831Z,14.15
2022-10-30T00:52:33.450Z,14.16
2022-10-30T00:55:07.440Z,14.08
2022-10-30T00:57:38.873Z,14.12
2022-10-30T01:00:10.009Z,14.03
2022-10-30T01:02:40.628Z,14.06
2022-10-30T01:05:12.751Z,13.97
2022-10-30T01:07:41.874Z,14.08
2022-10-30T01:10:14.507Z,14.10
2022-10-30T01:12:45.736Z,14.00
2022-10-30T01:15:16.125Z,13.76
2022-10-30T01:18:05.120Z,13.57
2022-10-30T01:21:24.977Z,13.00
2022-10-30T01:24:07.362Z,13.71
2022-10-30T01:26:46.669Z,13.74
2022-10-30T01:29:29.011Z,13.37
2022-10-30T01:32:20.684Z,13.59
2022-10-30T01:34:59.464Z,13.39
2022-10-30T01:37:35.779Z,13.61
2022-10-30T01:40:12.040Z,13.91
2022-10-30T01:42:48.307Z,13.98
2022-10-30T01:45:32.024Z,13.88
2022-10-30T01:48:15.762Z,13.35
2022-10-30T01:50:58.022Z,13.94
2022-10-30T01:53:38.638Z,13.76
2022-10-30T01:56:22.484Z,13.71
2022-10-30T01:59:03.211Z,13.24
2022-10-30T02:01:35.871Z,13.65
2022-10-30T02:04:05.875Z,13.01
2022-10-30T02:06:37.706Z,13.47
2022-10-30T02:09:07.336Z,13.16
2022-10-30T02:11:39.060Z,12.91
2022-10-30T02:14:10.890Z,13.68
2022-10-30T02:16:46.717Z,13.51
2022-10-30T02:19:15.910Z,10.81
2022-10-30T02:21:46.846Z,13.54
2022-10-30T02:24:18.387Z,13.59
2022-10-30T02:26:47.741Z,13.97
2022-10-30T02:29:18.565Z,13.84
2022-10-30T02:31:49.999Z,13.83
2022-10-30T02:34:18.683Z,13.86
2022-10-30T02:36:49.298Z,13.73
2022-10-30T02:39:21.324Z,13.51
2022-10-30T02:41:49.981Z,12.47
2022-10-30T02:44:18.719Z,13.60
2022-10-30T02:46:49.564Z,13.45
2022-10-30T02:49:18.402Z,13.52
2022-10-30T02:51:48.779Z,13.03
2022-10-30T02:54:20.277Z,13.48
2022-10-30T02:56:50.571Z,13.68
2022-10-30T02:59:20.761Z,13.75
2022-10-30T03:01:51.569Z,13.76
2022-10-30T03:04:21.541Z,13.43
2022-10-30T03:06:51.760Z,13.27
2022-10-30T03:09:21.093Z,11.68
2022-10-30T03:11:50.175Z,13.68
2022-10-30T03:14:18.859Z,13.58
2022-10-30T03:16:49.206Z,13.86
2022-10-30T03:19:18.551Z,13.78
2022-10-30T03:21:48.065Z,13.86
2022-10-30T03:24:18.402Z,13.84
2022-10-30T03:26:48.204Z,13.41
2022-10-30T03:29:17.222Z,13.21
2022-10-30T03:31:46.318Z,13.29
2022-10-30T03:34:20.434Z,13.37
2022-10-30T03:36:49.401Z,13.30
2022-10-30T03:39:19.577Z,13.26
2022-10-30T03:41:48.456Z,13.45
2022-10-30T03:44:17.447Z,13.13
2022-10-30T03:46:46.865Z,13.00
2022-10-30T03:49:44.007Z,12.98
2022-10-30T03:52:16.299Z,13.22
2022-10-30T03:54:48.126Z,13.15
2022-10-30T03:57:19.006Z,12.16
2022-10-30T04:00:08.552Z,13.37
2022-10-30T04:02:47.108Z,13.40
2022-10-30T04:05:18.805Z,12.90
2022-10-30T04:07:49.197Z,13.23
2022-10-30T04:10:22.925Z,13.03
2022-10-30T04:12:55.495Z,12.72
2022-10-30T04:15:26.603Z,12.05
2022-10-30T04:17:55.721Z,12.64
2022-10-30T04:20:26.775Z,12.95
2022-10-30T04:23:01.305Z,12.97
2022-10-30T04:25:32.839Z,13.23
2022-10-30T04:28:02.681Z,13.26
2022-10-30T04:30:35.375Z,13.27
2022-10-30T04:33:06.060Z,13.28
2022-10-30T04:35:38.556Z,12.78
2022-10-30T04:38:14.702Z,11.58
2022-10-30T04:40:50.949Z,12.87
2022-10-30T04:43:20.607Z,12.61
2022-10-30T04:45:53.826Z,12.97
2022-10-30T04:48:22.879Z,12.98
2022-10-30T04:50:55.776Z,12.95
2022-10-30T04:53:27.077Z,13.07
2022-10-30T04:56:08.064Z,12.75
2022-10-30T04:58:37.190Z,12.30
2022-10-30T05:01:08.518Z,12.55
2022-10-30T05:03:38.670Z,12.60
2022-10-30T05:06:24.441Z,10.53
2022-10-30T05:08:53.459Z,12.79
2022-10-30T05:11:45.667Z,12.72
2022-10-30T05:14:14.591Z,12.38
2022-10-30T05:16:44.283Z,12.54
2022-10-30T05:19:13.609Z,12.72
2022-10-30T05:21:48.342Z,12.57
2022-10-30T05:24:17.400Z,12.54
2022-10-30T05:26:50.463Z,12.70
2022-10-30T05:29:19.268Z,12.55
2022-10-30T05:31:48.088Z,12.51
2022-10-30T05:34:19.437Z,12.27
2022-10-30T05:36:51.210Z,12.80
2022-10-30T05:39:22.353Z,12.88
2022-10-30T05:41:55.299Z,12.29
2022-10-30T05:44:47.337Z,12.78
2022-10-30T05:47:16.288Z,12.13
2022-10-30T05:49:48.857Z,11.76
2022-10-30T05:52:23.594Z,12.28
2022-10-30T05:54:53.249Z,12.57
2022-10-30T05:57:41.898Z,12.43
2022-10-30T06:00:12.009Z,12.30
2022-10-30T06:02:47.367Z,12.40
2022-10-30T06:05:18.140Z,12.42
2022-10-30T06:07:47.518Z,9.65
2022-10-30T06:10:16.965Z,11.80
2022-10-30T06:13:03.038Z,12.33
2022-10-30T06:16:03.907Z,12.30
2022-10-30T06:18:52.170Z,12.42
2022-10-30T06:21:21.233Z,12.44
2022-10-30T06:24:09.513Z,12.58
2022-10-30T06:26:51.109Z,12.58
2022-10-30T06:29:21.402Z,12.44
2022-10-30T06:31:50.565Z,12.92
2022-10-30T06:34:19.496Z,13.06
2022-10-30T06:36:48.480Z,12.70
2022-10-30T06:39:17.875Z,12.39
2022-10-30T06:42:05.137Z,12.69
2022-10-30T06:45:16.179Z,12.39
2022-10-30T06:47:45.527Z,12.39
2022-10-30T06:50:17.509Z,12.41
2022-10-30T06:52:49.502Z,12.82
2022-10-30T06:55:19.147Z,12.71
2022-10-30T06:57:59.485Z,12.69
2022-10-30T07:00:53.476Z,12.58
2022-10-30T07:03:36.427Z,12.74
2022-10-30T07:06:05.535Z,12.45
2022-10-30T07:08:35.132Z,12.25
2022-10-30T07:11:03.926Z,12.60
2022-10-30T07:13:44.687Z,12.63
2022-10-30T07:16:37.840Z,12.58
2022-10-30T07:19:07.265Z,12.61
2022-10-30T07:21:36.978Z,12.70
2022-10-30T07:24:08.769Z,12.55
2022-10-30T07:26:47.228Z,12.54
2022-10-30T07:29:33.501Z,12.73
2022-10-30T07:32:21.885Z,13.08
2022-10-30T07:34:52.151Z,12.73
2022-10-30T07:37:31.515Z,13.00
2022-10-30T07:40:12.422Z,12.29
2022-10-30T07:43:05.595Z,12.90
2022-10-30T07:45:46.441Z,13.07
2022-10-30T07:48:35.473Z,12.99
2022-10-30T07:51:25.363Z,13.04
2022-10-30T07:53:57.545Z,13.02
2022-10-30T07:56:29.748Z,11.04
2022-10-30T07:58:58.839Z,12.87
2022-10-30T08:01:30.656Z,12.86
2022-10-30T08:04:11.310Z,12.96
2022-10-30T08:06:40.574Z,13.01
2022-10-30T08:09:10.320Z,10.68
2022-10-30T08:11:39.324Z,12.62
2022-10-30T08:14:13.101Z,11.18
2022-10-30T08:16:42.201Z,11.97
2022-10-30T08:19:13.178Z,13.43
2022-10-30T08:21:43.133Z,12.78
2022-10-30T08:24:19.537Z,13.05
2022-10-30T08:26:52.804Z,13.05
2022-10-30T08:29:23.746Z,13.04
2022-10-30T08:31:53.655Z,10.97
2022-10-30T08:34:44.226Z,13.03
2022-10-30T08:37:18.100Z,12.80
2022-10-30T08:39:47.413Z,13.13
2022-10-30T08:42:40.113Z,13.43
2022-10-30T08:45:12.633Z,13.26
2022-10-30T08:48:00.514Z,13.76
2022-10-30T08:50:33.221Z,13.66
2022-10-30T08:53:07.511Z,13.84
2022-10-30T08:55:37.005Z,13.52
2022-10-30T08:58:09.512Z,12.27
2022-10-30T09:00:39.265Z,13.25
2022-10-30T09:03:14.349Z,13.82
2022-10-30T09:06:03.908Z,14.19
2022-10-30T09:08:32.665Z,13.82
2022-10-30T09:11:01.611Z,14.35
2022-10-30T09:13:31.057Z,14.41
2022-10-30T09:16:03.991Z,14.44
2022-10-30T09:18:35.417Z,12.63
2022-10-30T09:21:05.961Z,13.94
2022-10-30T09:23:44.893Z,14.18
2022-10-30T09:26:32.450Z,14.86
2022-10-30T09:29:11.630Z,15.04
2022-10-30T09:32:01.194Z,15.16
2022-10-30T09:34:32.879Z,14.92
2022-10-30T09:37:41.625Z,15.35
2022-10-30T09:40:23.371Z,15.50
2022-10-30T09:42:53.358Z,15.63
2022-10-30T09:45:58.498Z,15.81
2022-10-30T09:48:47.767Z,15.92
2022-10-30T09:51:36.779Z,16.02
2022-10-30T09:54:17.142Z,16.15
2022-10-30T09:56:59.538Z,16.35
2022-10-30T09:59:42.967Z,16.47
2022-10-30T10:02:28.712Z,16.38
2022-10-30T10:05:02.260Z,16.63
2022-10-30T10:07:51.406Z,17.00
2022-10-30T10:10:43.514Z,17.22
2022-10-30T10:13:30.540Z,17.40
2022-10-30T10:16:06.207Z,17.38
2022-10-30T10:18:47.818Z,17.63
2022-10-30T10:21:25.964Z,17.81
2022-10-30T10:23:57.008Z,17.82
2022-10-30T10:26:37.422Z,17.93
2022-10-30T10:29:33.604Z,18.10
2022-10-30T10:32:34.525Z,18.16
2022-10-30T10:35:21.997Z,18.31
2022-10-30T10:37:59.268Z,18.36
2022-10-30T10:40:43.730Z,18.58
2022-10-30T10:43:25.436Z,18.77
2022-10-30T10:46:06.829Z,18.78
2022-10-30T10:48:52.229Z,18.80
2022-10-30T10:51:23.936Z,18.85
2022-10-30T10:53:57.092Z,18.86
2022-10-30T10:56:30.514Z,18.86
2022-10-30T10:59:05.426Z,18.92
2022-10-30T11:01:39.692Z,18.96
2022-10-30T11:04:15.811Z,18.99
2022-10-30T11:06:50.407Z,18.94
2022-10-30T11:09:23.584Z,18.92
2022-10-30T11:11:54.371Z,18.98
2022-10-30T11:14:26.337Z,19.29
2022-10-30T11:17:14.147Z,19.29
2022-10-30T11:19:47.800Z,19.29
2022-10-30T11:22:27.364Z,19.38
2022-10-30T11:24:56.120Z,19.39
2022-10-30T11:27:28.696Z,19.38
2022-10-30T11:30:02.477Z,19.36
2022-10-30T11:32:33.148Z,19.34
2022-10-30T11:35:04.620Z,19.32
2022-10-30T11:37:35.775Z,19.30
2022-10-30T11:40:17.617Z,19.31
2022-10-30T11:42:55.959Z,19.31
2022-10-30T11:45:29.703Z,19.21
2022-10-30T11:48:02.730Z,19.31
2022-10-30T11:50:34.209Z,19.31
2022-10-30T11:53:12.188Z,19.29
2022-10-30T11:55:46.386Z,19.29
2022-10-30T11:58:27.315Z,19.20
2022-10-30T12:01:03.811Z,19.17
2022-10-30T12:03:39.712Z,19.28
2022-10-30T12:06:11.608Z,19.24
2022-10-30T12:08:40.892Z,19.23
2022-10-30T12:11:10.100Z,19.19
2022-10-30T12:13:41.402Z,19.22
2022-10-30T12:16:17.620Z,19.20
2022-10-30T12:18:58.295Z,19.22
2022-10-30T12:21:29.381Z,19.18
2022-10-30T12:24:06.966Z,19.20
2022-10-30T12:26:38.560Z,19.15
2022-10-30T12:29:14.828Z,18.41
2022-10-30T12:31:51.287Z,19.17
2022-10-30T12:34:35.323Z,19.34
2022-10-30T12:37:14.784Z,19.24
2022-10-30T12:39:54.677Z,19.30
2022-10-30T12:42:27.193Z,19.05
2022-10-30T12:45:10.285Z,18.88
2022-10-30T12:47:49.715Z,18.80
2022-10-30T12:50:23.903Z,18.83
2022-10-30T12:53:00.936Z,18.80
2022-10-30T12:55:35.676Z,18.71
2022-10-30T12:58:14.744Z,18.74
2022-10-30T13:00:56.162Z,18.72
2022-10-30T13:03:32.956Z,18.59
2022-10-30T13:06:06.916Z,18.70
2022-10-30T13:08:39.836Z,18.85
2022-10-30T13:11:18.123Z,18.74
2022-10-30T13:13:50.235Z,18.75
2022-10-30T13:16:24.162Z,18.72
2022-10-30T13:18:58.760Z,18.72
2022-10-30T13:21:33.945Z,18.75
2022-10-30T13:24:06.551Z,18.65
2022-10-30T13:26:43.967Z,18.66
2022-10-30T13:29:21.259Z,18.59
2022-10-30T13:32:00.505Z,18.65
2022-10-30T13:34:45.012Z,18.57
2022-10-30T13:37:22.899Z,18.72
2022-10-30T13:40:03.273Z,18.67
2022-10-30T13:42:44.954Z,19.15
2022-10-30T13:45:43.986Z,18.80
2022-10-30T13:48:25.650Z,18.56
2022-10-30T13:51:24.598Z,18.77
2022-10-30T13:54:07.130Z,18.70
2022-10-30T13:56:37.371Z,18.98
2022-10-30T13:59:18.061Z,19.10
2022-10-30T14:01:57.506Z,18.92
2022-10-30T14:04:38.582Z,19.00
2022-10-30T14:07:27.673Z,19.13
2022-10-30T14:10:03.945Z,18.90
2022-10-30T14:12:52.747Z,18.10
2022-10-30T14:15:33.470Z,18.65
2022-10-30T14:18:42.002Z,18.70
2022-10-30T14:21:39.886Z,18.56
2022-10-30T14:24:19.498Z,18.47
2022-10-30T14:26:54.616Z,18.72
2022-10-30T14:29:43.696Z,18.67
2022-10-30T14:32:42.598Z,18.50
2022-10-30T14:35:33.224Z,18.65
2022-10-30T14:38:28.205Z,18.40
2022-10-30T14:41:39.326Z,18.32
2022-10-30T14:44:46.882Z,17.88
2022-10-30T14:47:44.524Z,18.56
2022-10-30T14:50:21.314Z,18.46
2022-10-30T14:53:03.232Z,17.94
2022-10-30T14:55:36.128Z,18.39
2022-10-30T14:58:22.094Z,18.19
2022-10-30T15:00:51.453Z,18.23
2022-10-30T15:03:48.947Z,18.13
2022-10-30T15:06:25.686Z,18.14
2022-10-30T15:09:09.402Z,17.94
2022-10-30T15:12:07.040Z,18.12
2022-10-30T15:14:53.829Z,18.00
2022-10-30T15:17:30.507Z,17.90
2022-10-30T15:20:02.796Z,18.10
2022-10-30T15:22:34.148Z,18.11
2022-10-30T15:25:03.822Z,18.10
2022-10-30T15:27:36.468Z,17.85
2022-10-30T15:30:08.200Z,17.70
2022-10-30T15:32:41.994Z,17.78
2022-10-30T15:35:17.300Z,17.39
2022-10-30T15:38:03.417Z,17.76
2022-10-30T15:40:36.368Z,17.68
2022-10-30T15:43:08.903Z,17.32
2022-10-30T15:45:42.802Z,17.27
2022-10-30T15:48:25.761Z,17.29
2022-10-30T15:51:02.240Z,17.32
2022-10-30T15:53:37.786Z,16.85
2022-10-30T15:56:13.602Z,17.03
2022-10-30T15:58:51.621Z,16.98
2022-10-30T16:01:32.555Z,16.92
2022-10-30T16:04:03.942Z,16.76
2022-10-30T16:06:33.411Z,16.54
2022-10-30T16:09:05.168Z,16.36
2022-10-30T16:11:34.732Z,16.30
2022-10-30T16:14:08.999Z,16.46
2022-10-30T16:16:39.606Z,16.31
2022-10-30T16:19:08.340Z,16.21
2022-10-30T16:21:39.841Z,16.09
2022-10-30T16:24:11.343Z,16.15
2022-10-30T16:26:40.754Z,16.16
2022-10-30T16:29:27.346Z,16.34
2022-10-30T16:31:57.794Z,16.25
2022-10-30T16:34:32.057Z,16.19
2022-10-30T16:37:02.764Z,15.39
2022-10-30T16:39:33.235Z,16.16
2022-10-30T16:42:05.131Z,16.13
2022-10-30T16:44:35.528Z,16.14
2022-10-30T16:47:11.596Z,16.09
2022-10-30T16:49:48.560Z,16.18
2022-10-30T16:52:24.656Z,16.16
2022-10-30T16:55:02.676Z,16.18
2022-10-30T16:57:34.439Z,16.13
2022-10-30T17:00:06.272Z,16.27
2022-10-30T17:02:46.042Z,16.55
2022-10-30T17:05:22.573Z,16.41
2022-10-30T17:07:56.343Z,16.31
2022-10-30T17:10:34.127Z,16.14
2022-10-30T17:13:35.204Z,16.12
2022-10-30T17:16:24.980Z,15.92
2022-10-30T17:18:57.663Z,15.97
2022-10-30T17:21:30.351Z,15.95
2022-10-30T17:24:02.375Z,15.14
2022-10-30T17:26:38.867Z,15.75
2022-10-30T17:29:07.516Z,15.65
2022-10-30T17:31:44.213Z,15.67
2022-10-30T17:34:17.625Z,15.65
2022-10-30T17:36:46.550Z,15.56
2022-10-30T17:39:15.475Z,15.63
2022-10-30T17:41:44.276Z,15.58
2022-10-30T17:44:19.952Z,15.71
2022-10-30T17:46:52.736Z,15.64
2022-10-30T17:49:28.051Z,15.35
2022-10-30T17:51:57.204Z,15.34
2022-10-30T17:54:26.171Z,15.34
2022-10-30T17:56:59.356Z,15.52
2022-10-30T17:59:29.785Z,15.59
2022-10-30T18:01:58.561Z,15.57
2022-10-30T18:04:29.089Z,15.49
2022-10-30T18:06:57.843Z,15.37
2022-10-30T18:09:26.822Z,15.39
2022-10-30T18:11:55.611Z,15.39
2022-10-30T18:14:24.518Z,15.37
2022-10-30T18:16:55.536Z,15.33
2022-10-30T18:19:27.744Z,15.30
2022-10-30T18:21:58.091Z,15.25
2022-10-30T18:24:26.939Z,15.19
2022-10-30T18:26:58.717Z,15.13
2022-10-30T18:29:29.524Z,15.13
2022-10-30T18:32:05.425Z,15.09
2022-10-30T18:34:40.094Z,15.34
2022-10-30T18:37:11.204Z,15.27
2022-10-30T18:39:39.894Z,15.19
2022-10-30T18:42:10.177Z,15.17
2022-10-30T18:44:38.863Z,15.02
2022-10-30T18:47:11.758Z,15.04
2022-10-30T18:49:40.571Z,14.98
2022-10-30T18:52:11.759Z,14.94
2022-10-30T18:54:40.719Z,14.93
2022-10-30T18:57:09.389Z,14.83
2022-10-30T18:59:38.244Z,14.93
2022-10-30T19:02:21.715Z,14.79
2022-10-30T19:04:55.018Z,14.69
2022-10-30T19:07:25.819Z,14.68
2022-10-30T19:09:55.878Z,14.54
2022-10-30T19:12:24.670Z,14.60
2022-10-30T19:14:53.611Z,14.63
2022-10-30T19:17:22.727Z,14.60
2022-10-30T19:19:51.415Z,14.64
2022-10-30T19:22:22.628Z,14.56
2022-10-30T19:24:55.078Z,14.57
2022-10-30T19:27:27.102Z,14.60
2022-10-30T19:29:55.788Z,14.67
2022-10-30T19:32:28.093Z,14.59
2022-10-30T19:34:57.057Z,14.47
2022-10-30T19:37:25.958Z,14.52
2022-10-30T19:39:56.704Z,14.50
2022-10-30T19:42:25.582Z,14.57
2022-10-30T19:44:58.939Z,14.59
2022-10-30T19:47:28.050Z,14.60
2022-10-30T19:49:56.736Z,14.49
2022-10-30T19:52:29.247Z,14.42
2022-10-30T19:54:59.567Z,14.36
2022-10-30T19:57:30.561Z,14.28
2022-10-30T19:59:59.589Z,14.40
2022-10-30T20:02:30.796Z,14.36
2022-10-30T20:05:03.321Z,14.30
2022-10-30T20:07:32.175Z,14.37
2022-10-30T20:10:02.293Z,14.36
2022-10-30T20:12:31.332Z,14.42
2022-10-30T20:15:00.131Z,14.56
2022-10-30T20:17:30.478Z,14.45
2022-10-30T20:20:01.493Z,14.34
2022-10-30T20:22:30.614Z,14.42
2022-10-30T20:25:00.399Z,14.43
2022-10-30T20:27:30.927Z,14.39
2022-10-30T20:30:02.297Z,14.25
2022-10-30T20:32:33.648Z,14.08
2022-10-30T20:35:06.297Z,14.05
2022-10-30T20:37:39.144Z,14.02
2022-10-30T20:40:14.022Z,13.90
2022-10-30T20:42:50.088Z,13.87
2022-10-30T20:45:24.510Z,13.79
2022-10-30T20:47:56.354Z,14.00
2022-10-30T20:50:28.342Z,13.90
2022-10-30T20:52:57.761Z,14.11
2022-10-30T20:55:26.510Z,13.93
2022-10-30T20:57:58.139Z,13.78
2022-10-30T21:00:27.046Z,13.71
2022-10-30T21:02:59.182Z,13.76
2022-10-30T21:05:43.152Z,13.84
2022-10-30T21:08:12.864Z,13.81
2022-10-30T21:10:42.037Z,13.10
2022-10-30T21:13:14.308Z,13.41
2022-10-30T21:15:44.563Z,13.68
2022-10-30T21:18:16.614Z,13.67
2022-10-30T21:20:47.436Z,13.63
2022-10-30T21:23:16.520Z,13.52
2022-10-30T21:25:50.210Z,13.41
2022-10-30T21:28:20.339Z,13.39
2022-10-30T21:30:49.903Z,13.32
2022-10-30T21:33:19.691Z,12.73
2022-10-30T21:35:48.486Z,13.19
2022-10-30T21:38:17.111Z,13.11
2022-10-30T21:40:56.027Z,13.10
2022-10-30T21:43:26.224Z,13.00
2022-10-30T21:45:55.106Z,13.11
2022-10-30T21:48:27.224Z,13.18
2022-10-30T21:50:55.988Z,13.49
2022-10-30T21:53:24.670Z,13.44
2022-10-30T21:55:53.916Z,13.27
2022-10-30T21:58:22.656Z,13.13
2022-10-30T22:00:55.795Z,13.13
2022-10-30T22:03:24.507Z,13.23
2022-10-30T22:05:53.736Z,13.28
2022-10-30T22:08:22.805Z,13.15
2022-10-30T22:10:51.902Z,13.28
2022-10-30T22:13:23.094Z,13.04
2022-10-30T22:15:56.791Z,13.30
2022-10-30T22:18:26.172Z,13.18
2022-10-30T22:21:01.589Z,12.94
2022-10-30T22:23:31.612Z,12.64
2022-10-30T22:26:02.315Z,12.47
2022-10-30T22:28:34.983Z,12.47
2022-10-30T22:31:07.046Z,12.43
2022-10-30T22:33:36.390Z,12.41
2022-10-30T22:36:07.256Z,12.35
2022-10-30T22:38:36.553Z,12.35
2022-10-30T22:41:09.598Z,12.48
2022-10-30T22:43:38.424Z,12.39
2022-10-30T22:46:10.181Z,12.30
2022-10-30T22:48:39.244Z,12.52
2022-10-30T22:51:15.385Z,12.41
2022-10-30T22:53:50.724Z,12.34
2022-10-30T22:56:24.193Z,12.29
2022-10-30T22:58:56.103Z,12.34
2022-10-30T23:01:28.166Z,12.12
2022-10-30T23:03:58.661Z,12.18
2022-10-30T23:06:28.459Z,12.21
2022-10-30T23:08:58.948Z,12.17
2022-10-30T23:11:30.728Z,11.94
2022-10-30T23:13:59.368Z,12.20
2022-10-30T23:16:33.025Z,12.08
2022-10-30T23:19:02.139Z,12.07
2022-10-30T23:21:32.482Z,12.16
2022-10-30T23:24:33.887Z,12.03
2022-10-30T23:27:02.609Z,12.00
2022-10-30T23:29:33.461Z,12.05
2022-10-30T23:32:03.572Z,12.10
2022-10-30T23:34:32.228Z,11.98
2022-10-30T23:37:01.932Z,11.97
2022-10-30T23:39:35.270Z,12.06
2022-10-30T23:42:08.460Z,12.14
2022-10-30T23:44:47.812Z,12.17
2022-10-30T23:47:18.122Z,12.09
2022-10-30T23:49:49.317Z,12.20
2022-10-30T23:52:26.815Z,12.18
2022-10-30T23:54:55.740Z,12.61
2022-10-30T23:57:24.839Z,12.44
2022-10-30T23:59:53.479Z,12.43
